Time;durP1;ratioP1;P1;durP2;ratioP2;P2;SDS_P1;SDS_P2;PMS_P1;PMS_P2;Temp;Humidity;BMP_temperature;BMP_pressure;BME280_temperature;BME280_humidity;BME280_pressure;Samples;Min_cycle;Max_cycle;Signal;HPM_P1;HPM_P2
2021/11/29 00:02:23;;;;;;;9.63;1.70;;;;;;;1.21;95.21;100420.09;5031787;28;20129;-42
2021/11/29 00:04:48;;;;;;;4.75;1.40;;;;;;;1.25;95.44;100429.47;5016853;28;20026;-43
2021/11/29 00:07:14;;;;;;;3.60;1.27;;;;;;;1.29;95.36;100433.50;5012783;28;20390;-42
2021/11/29 00:09:39;;;;;;;8.38;1.40;;;;;;;1.35;95.45;100446.25;5012561;28;20034;-42
2021/11/29 00:12:05;;;;;;;5.85;1.50;;;;;;;1.36;95.28;100437.31;5013014;28;20105;-42
2021/11/29 00:14:31;;;;;;;4.85;1.33;;;;;;;1.40;95.40;100443.22;5021939;28;20030;-42
2021/11/29 00:16:56;;;;;;;5.35;1.25;;;;;;;1.39;95.31;100446.81;5012364;28;20026;-42
2021/11/29 00:19:21;;;;;;;2.60;1.40;;;;;;;1.36;95.11;100441.78;5012319;28;20515;-42
2021/11/29 00:21:47;;;;;;;3.15;1.33;;;;;;;1.30;95.31;100432.56;5012291;28;20111;-42
2021/11/29 00:24:12;;;;;;;6.72;1.50;;;;;;;1.23;94.74;100449.97;5016757;28;20017;-42
2021/11/29 00:26:38;;;;;;;6.72;1.67;;;;;;;1.20;94.97;100452.88;5032047;28;20033;-42
2021/11/29 00:29:04;;;;;;;3.00;1.88;;;;;;;1.20;95.38;100447.56;5032147;28;20030;-41
2021/11/29 00:31:29;;;;;;;6.38;1.80;;;;;;;1.20;95.07;100450.22;5032007;28;20101;-42
2021/11/29 00:33:55;;;;;;;8.98;2.47;;;;;;;1.20;95.77;100452.88;5032013;28;20469;-41
2021/11/29 00:36:20;;;;;;;6.00;2.35;;;;;;;1.20;95.27;100452.88;5031755;28;20041;-41
2021/11/29 00:38:45;;;;;;;4.50;2.22;;;;;;;1.22;95.14;100456.25;5032082;28;20179;-41
2021/11/29 00:41:11;;;;;;;5.28;2.10;;;;;;;1.20;95.70;100453.72;5031866;28;20029;-41
2021/11/29 00:43:36;;;;;;;1.90;1.70;;;;;;;1.16;95.57;100454.09;5010581;28;20041;-41
2021/11/29 00:46:02;;;;;;;5.60;1.77;;;;;;;1.13;95.06;100433.16;5012187;28;20030;-40
2021/11/29 00:48:27;;;;;;;4.13;1.60;;;;;;;1.08;95.08;100434.41;5012152;28;20032;-41
2021/11/29 00:50:52;;;;;;;4.35;1.80;;;;;;;1.04;95.00;100432.97;5010892;28;20030;-40
2021/11/29 00:53:18;;;;;;;6.00;1.48;;;;;;;1.05;95.03;100433.81;5012160;28;20162;-40
2021/11/29 00:55:43;;;;;;;5.80;1.73;;;;;;;1.04;95.48;100440.09;5020532;28;20025;-40
2021/11/29 00:58:09;;;;;;;3.58;1.88;;;;;;;1.01;95.38;100435.88;5031949;28;20072;-41
2021/11/29 01:00:35;;;;;;;5.82;2.55;;;;;;;1.02;95.27;100434.06;5032450;28;20033;-40
2021/11/29 01:03:00;;;;;;;4.10;2.80;;;;;;;1.03;95.42;100430.47;5034309;28;20042;-40
2021/11/29 01:05:25;;;;;;;2.95;2.60;;;;;;;1.05;95.39;100437.31;5035111;28;20027;-41
2021/11/29 01:07:52;;;;;;;4.45;2.47;;;;;;;1.10;94.83;100453.63;5035521;28;20120;-42
2021/11/29 01:10:19;;;;;;;3.13;2.78;;;;;;;1.13;95.07;100473.75;5035483;28;20079;-41
2021/11/29 01:12:44;;;;;;;4.57;3.10;;;;;;;1.15;95.20;100460.38;5029896;28;20496;-41
2021/11/29 01:15:14;;;;;;;8.52;3.40;;;;;;;1.15;95.50;100473.63;5015818;28;20022;-41
2021/11/29 01:17:39;;;;;;;6.90;3.47;;;;;;;1.22;95.57;100474.78;5014798;28;20042;-41
2021/11/29 01:20:06;;;;;;;6.38;3.60;;;;;;;1.40;95.47;100491.78;5035382;28;20022;-41
2021/11/29 01:22:32;;;;;;;4.88;3.55;;;;;;;1.57;94.80;100495.63;5034933;28;20112;-43
2021/11/29 01:24:58;;;;;;;4.10;2.80;;;;;;;1.53;93.68;100508.31;5035147;28;20029;-42
2021/11/29 01:27:23;;;;;;;4.97;2.97;;;;;;;1.43;93.78;100494.16;5021332;28;20026;-41
2021/11/29 01:29:48;;;;;;;4.60;3.30;;;;;;;1.33;94.19;100490.63;5015139;28;20037;-40
2021/11/29 01:32:14;;;;;;;4.78;3.33;;;;;;;1.26;93.89;100486.81;5015239;28;20033;-41
2021/11/29 01:34:39;;;;;;;7.78;3.75;;;;;;;1.18;94.26;100483.97;5015391;28;20026;-41
2021/11/29 01:37:04;;;;;;;6.15;3.80;;;;;;;1.10;93.96;100474.84;5015345;28;20021;-41
2021/11/29 01:39:31;;;;;;;7.50;5.70;;;;;;;1.10;94.14;100489.91;5015384;28;20524;-41
2021/11/29 01:41:57;;;;;;;9.77;6.05;;;;;;;1.05;94.85;100492.97;5015083;28;20473;-41
2021/11/29 01:44:22;;;;;;;8.48;5.95;;;;;;;1.10;94.97;100488.09;5034080;28;20033;-41
2021/11/29 01:46:48;;;;;;;8.48;6.82;;;;;;;1.09;95.25;100494.38;5034854;28;20388;-41
2021/11/29 01:49:13;;;;;;;12.18;8.68;;;;;;;1.08;95.48;100508.59;5034958;28;20033;-41
2021/11/29 01:51:39;;;;;;;12.50;8.50;;;;;;;1.13;95.27;100531.22;5034730;28;20435;-40
2021/11/29 01:54:04;;;;;;;11.40;7.78;;;;;;;1.30;95.92;100538.59;5034686;28;20104;-41
2021/11/29 01:56:30;;;;;;;12.40;6.70;;;;;;;1.48;94.01;100537.03;5034399;28;20022;-41
2021/11/29 01:58:55;;;;;;;7.80;6.20;;;;;;;1.39;92.87;100526.38;5016733;28;20030;-41
2021/11/29 02:01:24;;;;;;;7.28;6.22;;;;;;;1.27;93.47;100517.66;5014656;28;20061;-42
2021/11/29 02:03:53;;;;;;;10.38;6.70;;;;;;;1.16;93.55;100505.31;5014644;28;20029;-42
2021/11/29 02:06:18;;;;;;;10.70;6.78;;;;;;;1.08;94.55;100499.81;5014835;28;20029;-43
2021/11/29 02:08:44;;;;;;;9.02;7.20;;;;;;;1.08;94.43;100502.47;5013350;28;20041;-43
2021/11/29 02:11:09;;;;;;;10.35;7.90;;;;;;;1.02;94.66;100503.81;5030170;28;20473;-43
2021/11/29 02:13:35;;;;;;;11.02;7.55;;;;;;;0.89;94.49;100497.84;5015979;28;20029;-43
2021/11/29 02:16:00;;;;;;;12.43;8.50;;;;;;;0.85;94.32;100491.97;5034130;28;20033;-43
2021/11/29 02:18:32;;;;;;;12.43;9.00;;;;;;;0.78;94.56;100492.63;5032157;28;20110;-43
2021/11/29 02:21:04;;;;;;;13.25;10.50;;;;;;;0.78;95.12;100498.75;5032957;28;20108;-43
2021/11/29 02:23:30;;;;;;;19.13;11.23;;;;;;;0.75;95.60;100500.81;5033807;28;20489;-42
2021/11/29 02:25:55;;;;;;;18.52;11.52;;;;;;;0.69;95.66;100494.22;5033091;28;20362;-42
2021/11/29 02:28:22;;;;;;;13.27;11.15;;;;;;;0.64;95.97;100484.00;5021931;28;20091;-42
2021/11/29 02:30:47;;;;;;;18.55;12.93;;;;;;;0.67;96.15;100488.22;5014334;28;20030;-43
2021/11/29 02:33:13;;;;;;;14.38;12.20;;;;;;;0.59;96.26;100488.00;5014367;28;20367;-42
2021/11/29 02:35:39;;;;;;;11.93;10.30;;;;;;;0.56;96.22;100483.81;5014411;28;20132;-41
2021/11/29 02:38:06;;;;;;;18.88;11.52;;;;;;;0.53;96.02;100494.66;5019858;28;20033;-42
2021/11/29 02:40:32;;;;;;;19.50;13.65;;;;;;;0.57;96.06;100492.59;5033805;28;20464;-41
2021/11/29 02:42:58;;;;;;;22.02;14.73;;;;;;;0.60;96.62;100482.56;5032479;28;20136;-41
2021/11/29 02:45:23;;;;;;;22.30;15.27;;;;;;;0.64;96.44;100484.00;5033841;28;20085;-40
2021/11/29 02:47:48;;;;;;;21.88;15.30;;;;;;;0.65;96.96;100480.38;5031755;28;20037;-41
2021/11/29 02:50:14;;;;;;;20.67;14.93;;;;;;;0.69;97.19;100488.09;5033773;28;20057;-41
2021/11/29 02:52:40;;;;;;;22.30;15.38;;;;;;;0.70;96.95;100487.13;5033770;28;20033;-41
2021/11/29 02:55:08;;;;;;;18.58;14.43;;;;;;;0.70;97.33;100481.81;5041214;28;20029;-40
2021/11/29 02:57:33;;;;;;;21.98;15.88;;;;;;;0.73;97.19;100476.25;5026651;28;20033;-41
2021/11/29 02:59:59;;;;;;;20.38;14.18;;;;;;;0.75;97.35;100479.63;5013699;28;20037;-40
2021/11/29 03:02:24;;;;;;;16.60;13.57;;;;;;;0.81;97.23;100479.09;5020372;28;20092;-41
2021/11/29 03:04:50;;;;;;;24.45;13.85;;;;;;;0.83;97.15;100487.78;5033406;28;20096;-42
2021/11/29 03:07:16;;;;;;;21.65;12.88;;;;;;;0.81;96.95;100479.09;5033354;28;20029;-41
2021/11/29 03:09:42;;;;;;;18.25;11.93;;;;;;;0.81;97.00;100479.94;5032632;28;20033;-41
2021/11/29 03:12:08;;;;;;;17.90;12.13;;;;;;;0.83;96.94;100482.47;5033294;28;20499;-41
2021/11/29 03:14:34;;;;;;;24.73;12.18;;;;;;;0.88;96.91;100480.28;5034130;28;20033;-41
2021/11/29 03:16:59;;;;;;;15.23;11.48;;;;;;;1.01;96.57;100528.63;5033481;28;20029;-41
2021/11/29 03:19:29;;;;;;;19.67;10.93;;;;;;;1.02;96.56;100506.44;5027635;28;20026;-41
2021/11/29 03:21:55;;;;;;;24.65;6.00;;;;;;;1.20;96.50;100516.50;5013548;28;20108;-41
2021/11/29 03:24:20;;;;;;;23.23;3.97;;;;;;;1.55;95.98;100518.78;5013518;28;20117;-41
2021/11/29 03:26:46;;;;;;;20.27;3.92;;;;;;;1.80;95.09;100514.88;5013287;28;20042;-41
2021/11/29 03:29:14;;;;;;;20.00;2.03;;;;;;;2.05;94.46;100515.38;5013444;28;20025;-41
2021/11/29 03:31:41;;;;;;;11.57;1.45;;;;;;;2.27;90.34;100523.13;5032690;28;20112;-42
2021/11/29 03:34:09;;;;;;;11.48;0.98;;;;;;;2.32;90.59;100531.53;5032735;28;20037;-41
2021/11/29 03:36:36;;;;;;;9.20;1.58;;;;;;;2.38;89.12;100527.47;5032716;28;20032;-40
2021/11/29 03:39:06;;;;;;;4.37;0.87;;;;;;;2.44;88.01;100534.06;5032326;28;20469;-41
2021/11/29 03:41:31;;;;;;;8.90;1.00;;;;;;;2.48;87.00;100509.75;5015404;28;20025;-41
2021/11/29 03:43:57;;;;;;;9.93;1.23;;;;;;;2.36;87.33;100501.03;5012613;28;20474;-41
2021/11/29 03:46:22;;;;;;;5.07;1.17;;;;;;;2.32;86.89;100502.31;5012813;28;20038;-40
2021/11/29 03:48:48;;;;;;;6.88;0.80;;;;;;;2.35;86.22;100504.69;5012618;28;20028;-41
2021/11/29 03:51:13;;;;;;;4.45;1.10;;;;;;;2.38;85.54;100496.44;5012750;28;20037;-41
2021/11/29 03:53:39;;;;;;;13.07;1.02;;;;;;;2.45;84.60;100491.44;5011540;28;20040;-41
2021/11/29 03:56:05;;;;;;;12.32;2.05;;;;;;;2.60;83.20;100502.47;5012522;28;20037;-41
2021/11/29 03:58:30;;;;;;;9.32;1.20;;;;;;;2.68;83.00;100507.09;5012802;28;20037;-41
2021/11/29 04:00:56;;;;;;;6.93;1.63;;;;;;;2.72;82.96;100506.69;5012439;28;20080;-41
2021/11/29 04:03:21;;;;;;;8.90;0.98;;;;;;;2.75;82.12;100500.25;5012629;28;20026;-41
2021/11/29 04:05:46;;;;;;;10.75;1.30;;;;;;;2.80;80.35;100514.78;5012587;28;20113;-41
2021/11/29 04:08:12;;;;;;;15.43;1.20;;;;;;;2.79;81.46;100507.81;5012429;28;20071;-41
2021/11/29 04:10:37;;;;;;;7.47;1.00;;;;;;;3.00;78.13;100522.75;5023301;28;20033;-41
2021/11/29 04:13:03;;;;;;;7.35;1.15;;;;;;;3.02;78.30;100518.97;5032056;28;20026;-41
2021/11/29 04:15:28;;;;;;;7.78;1.10;;;;;;;3.08;77.35;100517.56;5032162;28;20021;-41
2021/11/29 04:17:54;;;;;;;11.57;0.90;;;;;;;3.12;74.72;100513.66;5030815;28;20029;-41
2021/11/29 04:20:19;;;;;;;7.82;1.25;;;;;;;3.12;75.66;100518.16;5017808;28;20029;-41
2021/11/29 04:22:46;;;;;;;15.35;1.42;;;;;;;3.12;76.37;100513.66;5012062;28;20478;-41
2021/11/29 04:25:17;;;;;;;16.98;1.67;;;;;;;3.06;76.28;100511.56;5012160;28;20473;-40
2021/11/29 04:27:44;;;;;;;12.98;1.67;;;;;;;3.03;77.67;100511.88;5025027;28;20435;-40
2021/11/29 04:30:16;;;;;;;12.68;1.55;;;;;;;3.02;78.80;100515.47;5031930;28;20049;-41
2021/11/29 04:32:41;;;;;;;12.15;1.42;;;;;;;2.96;80.40;100518.72;5030101;28;20374;-40
2021/11/29 04:35:07;;;;;;;12.23;1.13;;;;;;;3.04;79.28;100516.19;5015676;28;20072;-42
2021/11/29 04:37:33;;;;;;;6.35;1.20;;;;;;;3.12;79.91;100524.28;5016364;28;20391;-40
2021/11/29 04:39:58;;;;;;;10.80;1.60;;;;;;;3.11;79.84;100525.28;5016305;28;20028;-40
2021/11/29 04:42:24;;;;;;;12.45;1.30;;;;;;;3.23;78.27;100521.47;5021406;28;20036;-41
2021/11/29 04:44:49;;;;;;;13.27;1.55;;;;;;;3.18;78.91;100529.03;5034585;28;20056;-40
2021/11/29 04:47:14;;;;;;;11.43;1.67;;;;;;;3.21;78.48;100534.09;5035732;28;20515;-40
2021/11/29 04:49:40;;;;;;;12.38;1.92;;;;;;;3.29;77.11;100528.91;5035556;28;20044;-40
2021/11/29 04:52:05;;;;;;;8.18;1.17;;;;;;;3.32;77.52;100542.88;5033736;28;20021;-40
2021/11/29 04:54:31;;;;;;;16.38;1.60;;;;;;;3.35;77.87;100526.66;5015819;28;20029;-40
2021/11/29 04:56:56;;;;;;;8.82;1.40;;;;;;;3.34;76.28;100528.44;5014541;28;20494;-41
2021/11/29 04:59:21;;;;;;;8.35;1.80;;;;;;;3.37;75.47;100535.31;5015663;28;20022;-40
2021/11/29 05:01:47;;;;;;;14.68;1.30;;;;;;;3.60;74.18;100547.31;5042553;28;20052;-40
2021/11/29 05:04:12;;;;;;;8.57;1.15;;;;;;;3.67;75.57;100548.41;5037990;28;20088;-40
2021/11/29 05:06:38;;;;;;;11.88;1.60;;;;;;;3.73;76.56;100550.47;5035193;28;20017;-40
2021/11/29 05:09:06;;;;;;;12.52;1.77;;;;;;;3.79;76.64;100561.53;5035289;28;20121;-40
2021/11/29 05:11:32;;;;;;;12.25;1.15;;;;;;;3.70;76.80;100556.09;5040321;28;20083;-40
2021/11/29 05:13:57;;;;;;;13.07;1.42;;;;;;;3.65;78.03;100546.88;5041657;28;20033;-40
2021/11/29 05:16:23;;;;;;;8.98;1.27;;;;;;;3.53;77.51;100538.25;5033768;28;20036;-40
2021/11/29 05:18:48;;;;;;;13.25;2.03;;;;;;;3.59;76.97;100542.13;5015461;28;20073;-41
2021/11/29 05:21:14;;;;;;;10.43;1.42;;;;;;;3.62;77.25;100555.16;5015308;28;20026;-42
2021/11/29 05:23:39;;;;;;;10.82;1.33;;;;;;;3.62;77.27;100552.50;5016324;28;20029;-40
2021/11/29 05:26:04;;;;;;;9.25;1.20;;;;;;;3.75;76.71;100568.97;5016628;28;20030;-40
2021/11/29 05:28:30;;;;;;;19.38;1.65;;;;;;;3.68;78.28;100584.69;5033997;28;20025;-41
2021/11/29 05:30:55;;;;;;;10.88;1.45;;;;;;;3.76;75.58;100569.81;5035185;28;20389;-41
2021/11/29 05:33:20;;;;;;;11.50;1.40;;;;;;;3.70;76.71;100574.72;5034936;28;20113;-41
2021/11/29 05:35:46;;;;;;;6.80;1.05;;;;;;;3.65;75.31;100573.50;5035262;28;20389;-41
2021/11/29 05:38:11;;;;;;;9.05;1.20;;;;;;;3.70;76.72;100589.88;5035205;28;20428;-40
2021/11/29 05:40:36;;;;;;;6.80;1.17;;;;;;;3.79;76.37;100585.50;5035001;28;20030;-41
2021/11/29 05:43:02;;;;;;;9.15;1.23;;;;;;;3.79;77.86;100601.47;5034562;28;20556;-41
2021/11/29 05:45:27;;;;;;;9.65;1.20;;;;;;;3.76;79.48;100601.75;5035073;28;20029;-42
2021/11/29 05:47:53;;;;;;;19.38;1.38;;;;;;;3.69;81.42;100618.31;5034279;28;20044;-41
2021/11/29 05:50:18;;;;;;;12.57;1.77;;;;;;;3.64;80.67;100625.06;5034913;28;20057;-40
2021/11/29 05:52:44;;;;;;;12.95;2.50;;;;;;;3.59;80.49;100645.91;5026794;28;20034;-41
2021/11/29 05:55:11;;;;;;;17.77;2.45;;;;;;;3.48;81.65;100626.47;5014383;28;20037;-41
2021/11/29 05:57:38;;;;;;;10.90;1.48;;;;;;;3.34;82.72;100620.72;5026346;28;20080;-41
2021/11/29 06:00:08;;;;;;;19.05;1.65;;;;;;;3.21;83.51;100608.56;5042926;28;20068;-42
2021/11/29 06:02:33;;;;;;;16.02;2.03;;;;;;;3.10;84.05;100602.53;5030304;28;20054;-42
2021/11/29 06:04:59;;;;;;;16.40;1.70;;;;;;;2.95;84.54;100610.06;5022518;28;20029;-42
2021/11/29 06:07:24;;;;;;;9.57;1.30;;;;;;;2.85;85.48;100610.91;5049969;28;20107;-42
2021/11/29 06:09:49;;;;;;;16.63;1.48;;;;;;;2.72;85.35;100607.66;5048726;28;20035;-41
2021/11/29 06:12:15;;;;;;;14.60;2.00;;;;;;;2.62;86.11;100612.13;5031529;28;20064;-42
2021/11/29 06:14:40;;;;;;;15.10;1.40;;;;;;;2.50;86.04;100608.75;5014600;28;20048;-42
2021/11/29 06:17:05;;;;;;;9.15;1.67;;;;;;;2.40;86.66;100611.34;5046591;28;20063;-42
2021/11/29 06:19:31;;;;;;;20.73;2.33;;;;;;;2.34;87.37;100619.88;5035224;28;20472;-42
2021/11/29 06:21:56;;;;;;;12.02;1.88;;;;;;;2.31;88.51;100622.78;5014357;28;20443;-42
2021/11/29 06:24:21;;;;;;;8.32;1.83;;;;;;;2.31;88.69;100614.81;5015351;28;20030;-42
2021/11/29 06:26:47;;;;;;;13.02;2.22;;;;;;;2.50;87.92;100615.84;5014304;28;20037;-41
2021/11/29 06:29:12;;;;;;;18.75;2.20;;;;;;;2.60;86.60;100611.41;5018043;28;20033;-41
2021/11/29 06:31:38;;;;;;;16.67;2.00;;;;;;;2.65;86.08;100614.50;5032280;28;20081;-41
2021/11/29 06:34:04;;;;;;;18.50;1.77;;;;;;;2.73;85.49;100616.47;5023192;28;20034;-41
2021/11/29 06:38:46;;;;;;;13.30;1.15;;;;;;;3.11;80.09;100613.03;5069697;28;20401;-39
2021/11/29 06:41:12;;;;;;;9.43;2.00;;;;;;;3.43;76.24;100611.91;5065020;28;20400;-40
2021/11/29 06:43:37;;;;;;;16.17;1.92;;;;;;;3.60;75.83;100621.81;5061887;28;20027;-40
2021/11/29 06:46:02;;;;;;;10.18;1.27;;;;;;;3.79;73.01;100625.44;5058769;28;20396;-39
2021/11/29 06:48:28;;;;;;;15.07;1.88;;;;;;;3.99;70.93;100634.22;5057845;28;20028;-40
2021/11/29 06:50:54;;;;;;;17.42;2.25;;;;;;;4.08;69.71;100623.53;5054360;28;20033;-40
2021/11/29 06:53:21;;;;;;;12.82;1.48;;;;;;;4.18;70.00;100629.66;5053542;28;20072;-40
2021/11/29 06:55:47;;;;;;;16.52;1.20;;;;;;;4.20;70.24;100631.34;5050538;28;20424;-40
2021/11/29 06:58:13;;;;;;;19.38;1.80;;;;;;;4.23;71.09;100642.53;5051973;28;20112;-40
2021/11/29 07:00:38;;;;;;;8.93;1.83;;;;;;;4.24;71.44;100643.38;5052249;28;20163;-42
2021/11/29 07:03:04;;;;;;;11.68;1.40;;;;;;;4.28;71.55;100647.44;5039871;28;20518;-42
2021/11/29 07:05:29;;;;;;;12.77;1.75;;;;;;;4.31;71.34;100652.47;5048960;28;20025;-40
2021/11/29 07:07:55;;;;;;;12.82;1.23;;;;;;;4.45;71.92;100654.69;5049776;28;20086;-41
2021/11/29 07:10:26;;;;;;;18.27;2.05;;;;;;;4.48;72.33;100654.38;5061408;28;20111;-40
2021/11/29 07:12:53;;;;;;;13.55;1.67;;;;;;;4.57;72.06;100657.97;5064951;28;20161;-39
2021/11/29 07:15:20;;;;;;;15.77;2.58;;;;;;;4.69;72.35;100658.63;5066483;28;20484;-40
2021/11/29 07:17:46;;;;;;;19.95;2.20;;;;;;;4.68;72.64;100664.94;5061845;28;20036;-40
2021/11/29 07:20:13;;;;;;;15.90;1.88;;;;;;;4.73;71.42;100660.00;5066843;28;20154;-40
2021/11/29 07:22:38;;;;;;;19.25;2.13;;;;;;;4.76;72.28;100668.53;5067792;28;20098;-40
2021/11/29 07:25:04;;;;;;;12.52;1.52;;;;;;;4.75;72.36;100674.03;5068867;28;20108;-40
2021/11/29 07:27:31;;;;;;;8.80;1.70;;;;;;;4.71;71.37;100684.13;5066684;28;20107;-40
2021/11/29 07:29:57;;;;;;;12.32;1.40;;;;;;;4.61;71.73;100680.69;5058467;28;20025;-41
2021/11/29 07:32:23;;;;;;;9.95;1.88;;;;;;;4.70;70.66;100687.78;5054400;28;20048;-40
2021/11/29 07:34:49;;;;;;;13.57;2.10;;;;;;;4.74;69.53;100685.66;5057004;28;20384;-42
2021/11/29 07:37:16;;;;;;;22.25;1.98;;;;;;;4.78;69.84;100690.56;5061753;28;20084;-41
2021/11/29 07:39:42;;;;;;;13.95;1.70;;;;;;;4.81;70.24;100694.75;5050511;28;20041;-40
2021/11/29 07:42:08;;;;;;;16.85;1.50;;;;;;;4.76;71.07;100694.34;5060986;28;20020;-40
2021/11/29 07:44:33;;;;;;;10.50;1.65;;;;;;;4.70;69.66;100686.97;5060108;28;20040;-41
2021/11/29 07:46:59;;;;;;;16.08;1.83;;;;;;;4.72;70.40;100685.00;5054606;28;20116;-40
2021/11/29 07:49:24;;;;;;;13.13;1.42;;;;;;;4.80;70.35;100699.25;5053520;28;20017;-40
2021/11/29 07:51:49;;;;;;;12.68;1.45;;;;;;;4.80;71.76;100701.09;5042507;28;20021;-40
2021/11/29 07:54:15;;;;;;;13.15;1.55;;;;;;;4.83;71.93;100708.78;5053935;28;20472;-40
2021/11/29 07:56:40;;;;;;;11.50;1.98;;;;;;;4.98;72.49;100712.63;5037898;28;20017;-39
2021/11/29 07:59:05;;;;;;;14.82;1.70;;;;;;;5.04;74.15;100727.19;5033957;28;20025;-41
2021/11/29 08:01:31;;;;;;;12.02;2.00;;;;;;;5.01;75.14;100733.69;5035251;28;20511;-41
2021/11/29 08:03:57;;;;;;;15.57;1.90;;;;;;;4.86;76.47;100729.81;5054383;28;20385;-42
2021/11/29 08:06:22;;;;;;;11.48;1.73;;;;;;;4.70;77.38;100726.94;5053602;28;20060;-42
2021/11/29 08:08:47;;;;;;;14.38;1.88;;;;;;;4.75;78.02;100727.34;5053828;28;20112;-41
2021/11/29 08:11:13;;;;;;;12.05;1.92;;;;;;;4.73;77.75;100724.81;5053717;28;20480;-40
2021/11/29 08:13:38;;;;;;;17.10;2.30;;;;;;;4.71;76.68;100741.94;5053746;28;20468;-40
2021/11/29 08:16:04;;;;;;;10.75;1.50;;;;;;;4.81;77.88;100758.75;5052665;28;20017;-42
2021/11/29 08:18:29;;;;;;;15.90;1.38;;;;;;;4.78;78.38;100730.56;5070664;28;20039;-43
2021/11/29 08:20:55;;;;;;;13.23;1.25;;;;;;;4.96;76.60;100729.78;5043728;28;20042;-42
2021/11/29 08:23:20;;;;;;;17.63;2.20;;;;;;;5.21;75.99;100731.75;5043945;28;20033;-42
2021/11/29 08:25:46;;;;;;;21.30;2.13;;;;;;;5.40;74.85;100738.78;5047290;28;20031;-42
2021/11/29 08:28:11;;;;;;;13.95;2.35;;;;;;;5.25;75.40;100734.94;5053297;28;20464;-41
2021/11/29 08:30:37;;;;;;;18.33;2.60;;;;;;;5.30;74.47;100731.84;5035098;28;20025;-41
2021/11/29 08:33:03;;;;;;;21.85;2.30;;;;;;;5.37;73.87;100733.75;5034653;28;20025;-41
2021/11/29 08:35:28;;;;;;;26.00;2.42;;;;;;;5.41;72.96;100735.13;5047433;28;20434;-41
2021/11/29 08:37:55;;;;;;;18.90;2.30;;;;;;;5.46;71.51;100742.69;5053481;28;20048;-41
2021/11/29 08:40:26;;;;;;;19.30;1.98;;;;;;;5.52;71.47;100730.56;5051605;28;20081;-41
2021/11/29 08:42:53;;;;;;;22.73;2.00;;;;;;;5.50;72.31;100747.56;5053334;28;20051;-40
2021/11/29 08:45:18;;;;;;;23.95;2.75;;;;;;;5.52;71.79;100752.75;5040807;28;20487;-40
2021/11/29 08:47:43;;;;;;;21.80;1.85;;;;;;;5.55;71.07;100763.09;5053295;28;20099;-40
2021/11/29 08:50:10;;;;;;;15.63;2.05;;;;;;;5.53;71.26;100757.09;5053007;28;20428;-41
2021/11/29 08:52:35;;;;;;;16.13;1.90;;;;;;;5.53;72.36;100769.59;5037186;28;20469;-41
2021/11/29 08:55:06;;;;;;;15.75;2.03;;;;;;;5.52;72.86;100759.91;5052481;28;20032;-41
2021/11/29 08:57:32;;;;;;;11.45;1.80;;;;;;;5.48;72.75;100778.06;5033577;28;20575;-42
2021/11/29 08:59:57;;;;;;;15.13;1.88;;;;;;;5.54;71.47;100766.78;5052949;28;20013;-41
2021/11/29 09:02:23;;;;;;;17.08;2.75;;;;;;;5.62;70.75;100774.03;5045979;28;20032;-42
2021/11/29 09:04:48;;;;;;;26.27;2.30;;;;;;;5.63;71.27;100775.69;5044293;28;20112;-41
2021/11/29 09:07:14;;;;;;;22.77;2.10;;;;;;;5.57;72.86;100779.00;5041762;28;20087;-41
2021/11/29 09:09:39;;;;;;;18.80;1.83;;;;;;;5.62;71.87;100782.03;5054297;28;20024;-41
2021/11/29 09:12:05;;;;;;;15.23;2.30;;;;;;;5.63;72.97;100784.53;5072752;28;20111;-41
2021/11/29 09:14:30;;;;;;;15.77;1.60;;;;;;;5.67;71.59;100793.13;5070732;28;20024;-41
2021/11/29 09:16:56;;;;;;;17.75;2.63;;;;;;;5.70;71.68;100790.13;5032542;28;20036;-41
2021/11/29 09:19:23;;;;;;;15.13;2.22;;;;;;;5.62;74.05;100796.22;5039097;28;20028;-41
2021/11/29 09:21:48;;;;;;;26.13;2.83;;;;;;;5.66;71.43;100796.75;5046457;28;20087;-40
2021/11/29 09:24:14;;;;;;;15.73;2.90;;;;;;;5.73;71.16;100804.00;5033104;28;20025;-41
2021/11/29 09:26:39;;;;;;;16.23;1.67;;;;;;;5.81;70.08;100810.44;5031809;28;20489;-42
2021/11/29 09:29:04;;;;;;;30.25;2.70;;;;;;;5.84;71.57;100805.63;5047294;28;20112;-41
2021/11/29 09:31:29;;;;;;;17.23;1.90;;;;;;;5.92;70.58;100805.72;5043519;28;20083;-41
2021/11/29 09:33:55;;;;;;;15.55;1.75;;;;;;;5.99;71.44;100818.50;5062670;28;20055;-41
2021/11/29 09:36:20;;;;;;;16.63;2.70;;;;;;;6.01;72.77;100827.19;5059458;28;20021;-41
2021/11/29 09:38:45;;;;;;;15.80;2.10;;;;;;;5.90;74.28;100826.41;5036713;28;20100;-41
2021/11/29 09:41:11;;;;;;;15.18;1.85;;;;;;;5.72;74.84;100836.22;5043606;28;20420;-41
2021/11/29 09:43:38;;;;;;;14.73;1.63;;;;;;;5.61;75.94;100836.41;5037908;28;20030;-43
2021/11/29 09:46:06;;;;;;;16.95;2.15;;;;;;;5.48;77.63;100840.28;5032667;28;20040;-40
2021/11/29 09:48:31;;;;;;;20.53;2.30;;;;;;;5.52;77.41;100845.34;5044219;28;20501;-42
2021/11/29 09:50:57;;;;;;;21.08;1.98;;;;;;;5.69;76.58;100849.88;5039766;28;20105;-41
2021/11/29 09:53:25;;;;;;;13.82;1.50;;;;;;;5.73;76.31;100837.91;5046834;28;20493;-41
2021/11/29 09:55:51;;;;;;;17.55;2.22;;;;;;;5.83;73.69;100862.72;5072532;28;20392;-42
2021/11/29 09:58:17;;;;;;;14.65;1.58;;;;;;;5.90;73.46;100855.78;5059287;28;20029;-42
2021/11/29 10:00:48;;;;;;;14.45;1.58;;;;;;;6.02;74.09;100860.94;5052530;28;20036;-42
2021/11/29 10:03:14;;;;;;;13.68;1.30;;;;;;;5.99;74.06;100874.59;5054022;28;20036;-42
2021/11/29 10:05:40;;;;;;;11.88;1.65;;;;;;;6.08;72.80;100860.31;5057483;28;20084;-41
2021/11/29 10:08:16;;;;;;;15.68;2.33;;;;;;;6.09;71.94;100870.03;5044308;28;20048;-42
2021/11/29 10:10:47;;;;;;;11.50;1.70;;;;;;;6.06;73.00;100867.66;5045768;28;20037;-41
2021/11/29 10:13:12;;;;;;;16.35;2.15;;;;;;;6.10;73.46;100869.03;5048479;28;20039;-41
2021/11/29 10:15:42;;;;;;;19.65;2.13;;;;;;;6.19;72.37;100864.59;5051526;28;20025;-41
2021/11/29 10:18:22;;;;;;;16.75;1.90;;;;;;;6.30;72.42;100872.38;5051841;28;20036;-40
2021/11/29 10:20:56;;;;;;;17.63;1.80;;;;;;;6.31;71.57;100866.88;5052170;28;20033;-40
2021/11/29 10:23:41;;;;;;;15.90;2.70;;;;;;;6.43;70.80;100872.00;5041001;28;20034;-42
2021/11/29 10:26:18;;;;;;;11.73;1.50;;;;;;;6.78;70.97;100863.91;5035624;28;20038;-41
2021/11/29 10:28:46;;;;;;;15.93;1.85;;;;;;;7.54;68.91;100862.31;5034662;28;20443;-41
2021/11/29 10:31:20;;;;;;;10.35;2.00;;;;;;;7.83;68.38;100869.09;5041349;28;20387;-41
2021/11/29 10:33:49;;;;;;;15.52;2.10;;;;;;;7.53;69.13;100875.84;5051661;28;20373;-41
2021/11/29 10:36:17;;;;;;;17.77;1.90;;;;;;;7.39;68.51;100861.25;5052178;28;20384;-41
2021/11/29 10:38:43;;;;;;;14.13;1.70;;;;;;;7.24;68.92;100872.56;5052383;28;20053;-42
2021/11/29 10:41:10;;;;;;;7.38;1.67;;;;;;;7.38;69.07;100873.78;5049824;28;20635;-41
2021/11/29 10:43:37;;;;;;;13.27;1.70;;;;;;;7.85;68.27;100867.94;5050662;28;20440;-41
2021/11/29 10:46:26;;;;;;;13.30;1.70;;;;;;;8.00;67.34;100860.06;5052050;28;20026;-41
2021/11/29 10:48:55;;;;;;;12.82;1.83;;;;;;;7.76;67.75;100858.19;5052030;28;20033;-41
2021/11/29 10:51:20;;;;;;;;;;;;;;;7.66;67.31;100866.38;5052578;28;20048;-42
2021/11/29 10:53:58;;;;;;;12.02;1.58;;;;;;;7.56;68.10;100873.72;5051972;28;19944;-42
2021/11/29 10:56:25;;;;;;;15.27;2.00;;;;;;;7.52;68.58;100856.28;5050917;28;20033;-41
2021/11/29 10:58:53;;;;;;;10.68;1.88;;;;;;;7.49;69.22;100883.38;5044617;28;20079;-42
2021/11/29 11:01:41;;;;;;;15.77;1.70;;;;;;;7.52;69.16;100880.38;5043556;28;20434;-42
2021/11/29 11:04:08;;;;;;;;;;;;;;;7.34;70.41;100884.97;5052431;28;20063;-42
2021/11/29 11:06:34;;;;;;;17.73;1.70;;;;;;;7.08;71.98;100890.34;5040886;28;20295;-42
2021/11/29 11:09:00;;;;;;;19.67;2.15;;;;;;;6.87;71.16;100866.63;5041102;28;20026;-42
2021/11/29 11:11:34;;;;;;;18.33;1.50;;;;;;;6.81;70.44;100885.00;5032193;28;20025;-42
2021/11/29 11:14:10;;;;;;;14.23;1.40;;;;;;;6.68;72.15;100879.22;5040540;28;20036;-41
2021/11/29 11:16:41;;;;;;;21.95;2.05;;;;;;;6.59;71.76;100880.16;5043777;28;20029;-41
2021/11/29 11:19:10;;;;;;;13.00;1.73;;;;;;;6.60;71.98;100889.84;5040755;28;20020;-41
2021/11/29 11:21:35;;;;;;;7.50;1.40;;;;;;;6.62;71.71;100895.06;5069319;28;20174;-42
2021/11/29 11:24:18;;;;;;;15.65;2.05;;;;;;;6.80;70.95;100883.31;5046492;28;20026;-41
2021/11/29 11:26:48;;;;;;;18.25;1.73;;;;;;;6.72;72.02;100888.63;5055321;28;20061;-40